sensor_id;sensor_type;location;lat;lon;timestamp;temperature;humidity
16229;DHT22;8222;51.462;12.630;2023-04-25T00:01:27;10.60;99.90
16229;DHT22;8222;51.462;12.630;2023-04-25T00:03:53;10.60;99.90
16229;DHT22;8222;51.462;12.630;2023-04-25T00:06:19;10.50;99.90
16229;DHT22;8222;51.462;12.630;2023-04-25T00:08:45;10.50;99.90
16229;DHT22;8222;51.462;12.630;2023-04-25T00:11:11;10.50;99.90
16229;DHT22;8222;51.462;12.630;2023-04-25T00:13:38;10.50;99.90
16229;DHT22;8222;51.462;12.630;2023-04-25T00:16:07;10.50;99.90
16229;DHT22;8222;51.462;12.630;2023-04-25T00:18:33;10.60;99.90
16229;DHT22;8222;51.462;12.630;2023-04-25T00:20:58;10.60;99.90
16229;DHT22;8222;51.462;12.630;2023-04-25T00:23:26;10.50;99.90
16229;DHT22;8222;51.462;12.630;2023-04-25T00:25:52;10.60;99.90
16229;DHT22;8222;51.462;12.630;2023-04-25T00:28:21;10.80;99.90
16229;DHT22;8222;51.462;12.630;2023-04-25T00:30:46;10.70;99.90
16229;DHT22;8222;51.462;12.630;2023-04-25T00:33:14;10.70;99.90
16229;DHT22;8222;51.462;12.630;2023-04-25T00:35:40;10.70;99.90
16229;DHT22;8222;51.462;12.630;2023-04-25T00:38:06;10.70;99.90
16229;DHT22;8222;51.462;12.630;2023-04-25T00:40:32;10.60;99.90
16229;DHT22;8222;51.462;12.630;2023-04-25T00:42:57;10.60;99.90
16229;DHT22;8222;51.462;12.630;2023-04-25T00:45:27;10.50;99.90
16229;DHT22;8222;51.462;12.630;2023-04-25T00:47:56;10.40;99.90
16229;DHT22;8222;51.462;12.630;2023-04-25T00:50:24;10.40;99.90
16229;DHT22;8222;51.462;12.630;2023-04-25T00:52:50;10.30;99.90
16229;DHT22;8222;51.462;12.630;2023-04-25T00:55:16;10.30;99.90
16229;DHT22;8222;51.462;12.630;2023-04-25T00:57:45;10.20;99.90
16229;DHT22;8222;51.462;12.630;2023-04-25T01:00:13;10.30;99.90
16229;DHT22;8222;51.462;12.630;2023-04-25T01:02:40;10.20;99.90
16229;DHT22;8222;51.462;12.630;2023-04-25T01:05:07;10.20;99.90
16229;DHT22;8222;51.462;12.630;2023-04-25T01:07:34;10.20;99.90
16229;DHT22;8222;51.462;12.630;2023-04-25T01:10:03;10.30;99.90
16229;DHT22;8222;51.462;12.630;2023-04-25T01:12:29;10.30;99.90
16229;DHT22;8222;51.462;12.630;2023-04-25T01:14:57;10.20;99.90
16229;DHT22;8222;51.462;12.630;2023-04-25T01:17:23;10.20;99.90
16229;DHT22;8222;51.462;12.630;2023-04-25T01:19:49;10.60;99.90
16229;DHT22;8222;51.462;12.630;2023-04-25T01:22:16;10.20;99.90
16229;DHT22;8222;51.462;12.630;2023-04-25T01:24:44;10.20;99.90
16229;DHT22;8222;51.462;12.630;2023-04-25T01:27:10;10.10;99.90
16229;DHT22;8222;51.462;12.630;2023-04-25T01:29:39;10.00;99.90
16229;DHT22;8222;51.462;12.630;2023-04-25T01:32:08;10.00;99.90
16229;DHT22;8222;51.462;12.630;2023-04-25T01:34:34;9.90;99.90
16229;DHT22;8222;51.462;12.630;2023-04-25T01:37:00;9.90;99.90
16229;DHT22;8222;51.462;12.630;2023-04-25T01:39:29;10.00;99.90
16229;DHT22;8222;51.462;12.630;2023-04-25T01:41:55;9.90;99.90
16229;DHT22;8222;51.462;12.630;2023-04-25T01:44:23;9.70;99.90
16229;DHT22;8222;51.462;12.630;2023-04-25T01:46:49;9.50;99.90
16229;DHT22;8222;51.462;12.630;2023-04-25T01:49:15;9.50;99.90
16229;DHT22;8222;51.462;12.630;2023-04-25T01:51:41;9.40;99.90
16229;DHT22;8222;51.462;12.630;2023-04-25T01:54:10;9.30;99.90
16229;DHT22;8222;51.462;12.630;2023-04-25T01:56:37;9.30;99.90
16229;DHT22;8222;51.462;12.630;2023-04-25T01:59:04;9.20;99.90
16229;DHT22;8222;51.462;12.630;2023-04-25T02:01:32;9.10;99.90
16229;DHT22;8222;51.462;12.630;2023-04-25T02:03:58;9.10;99.90
16229;DHT22;8222;51.462;12.630;2023-04-25T02:06:26;9.00;99.90
16229;DHT22;8222;51.462;12.630;2023-04-25T02:08:51;8.90;99.90
16229;DHT22;8222;51.462;12.630;2023-04-25T02:11:17;8.80;99.90
16229;DHT22;8222;51.462;12.630;2023-04-25T02:13:43;8.70;99.90
16229;DHT22;8222;51.462;12.630;2023-04-25T02:16:13;8.70;99.90
16229;DHT22;8222;51.462;12.630;2023-04-25T02:18:39;8.60;99.90
16229;DHT22;8222;51.462;12.630;2023-04-25T02:21:04;8.60;99.90
16229;DHT22;8222;51.462;12.630;2023-04-25T02:23:32;8.50;99.90
16229;DHT22;8222;51.462;12.630;2023-04-25T02:25:58;8.60;99.90
16229;DHT22;8222;51.462;12.630;2023-04-25T02:28:24;8.50;99.90
16229;DHT22;8222;51.462;12.630;2023-04-25T02:30:53;8.50;99.90
16229;DHT22;8222;51.462;12.630;2023-04-25T02:33:21;8.50;99.90
16229;DHT22;8222;51.462;12.630;2023-04-25T02:35:49;8.40;99.90
16229;DHT22;8222;51.462;12.630;2023-04-25T02:38:15;8.50;99.90
16229;DHT22;8222;51.462;12.630;2023-04-25T02:40:41;8.30;99.90
16229;DHT22;8222;51.462;12.630;2023-04-25T02:43:09;8.30;99.90
16229;DHT22;8222;51.462;12.630;2023-04-25T02:45:37;8.20;99.90
16229;DHT22;8222;51.462;12.630;2023-04-25T02:48:03;8.20;99.90
16229;DHT22;8222;51.462;12.630;2023-04-25T02:50:29;8.20;99.90
16229;DHT22;8222;51.462;12.630;2023-04-25T02:52:54;8.20;99.90
16229;DHT22;8222;51.462;12.630;2023-04-25T02:55:22;8.10;99.90
16229;DHT22;8222;51.462;12.630;2023-04-25T02:57:48;8.10;99.90
16229;DHT22;8222;51.462;12.630;2023-04-25T03:00:18;8.00;99.90
16229;DHT22;8222;51.462;12.630;2023-04-25T03:02:47;7.90;99.90
16229;DHT22;8222;51.462;12.630;2023-04-25T03:05:12;7.90;99.90
16229;DHT22;8222;51.462;12.630;2023-04-25T03:07:41;7.90;99.90
16229;DHT22;8222;51.462;12.630;2023-04-25T03:10:14;8.00;99.90
16229;DHT22;8222;51.462;12.630;2023-04-25T03:12:39;7.90;99.90
16229;DHT22;8222;51.462;12.630;2023-04-25T03:15:08;7.80;99.90
16229;DHT22;8222;51.462;12.630;2023-04-25T03:17:36;7.80;99.90
16229;DHT22;8222;51.462;12.630;2023-04-25T03:20:02;7.70;99.90
16229;DHT22;8222;51.462;12.630;2023-04-25T03:22:31;7.70;99.90
16229;DHT22;8222;51.462;12.630;2023-04-25T03:24:57;7.60;99.90
16229;DHT22;8222;51.462;12.630;2023-04-25T03:27:23;7.70;99.90
16229;DHT22;8222;51.462;12.630;2023-04-25T03:29:51;7.70;99.90
16229;DHT22;8222;51.462;12.630;2023-04-25T03:32:16;7.60;99.90
16229;DHT22;8222;51.462;12.630;2023-04-25T03:34:42;7.50;99.90
16229;DHT22;8222;51.462;12.630;2023-04-25T03:37:08;7.50;99.90
16229;DHT22;8222;51.462;12.630;2023-04-25T03:39:33;7.40;99.90
16229;DHT22;8222;51.462;12.630;2023-04-25T03:41:59;7.50;99.90
16229;DHT22;8222;51.462;12.630;2023-04-25T03:44:30;7.60;99.90
16229;DHT22;8222;51.462;12.630;2023-04-25T03:46:56;7.60;99.90
16229;DHT22;8222;51.462;12.630;2023-04-25T03:49:21;7.70;99.90
16229;DHT22;8222;51.462;12.630;2023-04-25T03:51:47;7.70;99.90
16229;DHT22;8222;51.462;12.630;2023-04-25T03:54:13;7.50;99.90
16229;DHT22;8222;51.462;12.630;2023-04-25T03:56:41;7.70;99.90
16229;DHT22;8222;51.462;12.630;2023-04-25T03:59:06;7.70;99.90
16229;DHT22;8222;51.462;12.630;2023-04-25T04:01:35;7.80;99.90
16229;DHT22;8222;51.462;12.630;2023-04-25T04:04:01;7.80;99.90
16229;DHT22;8222;51.462;12.630;2023-04-25T04:06:27;8.00;99.90
16229;DHT22;8222;51.462;12.630;2023-04-25T04:08:52;7.90;99.90
16229;DHT22;8222;51.462;12.630;2023-04-25T04:11:18;7.80;99.90
16229;DHT22;8222;51.462;12.630;2023-04-25T04:13:44;7.90;99.90
16229;DHT22;8222;51.462;12.630;2023-04-25T04:16:10;7.80;99.90
16229;DHT22;8222;51.462;12.630;2023-04-25T04:18:38;8.10;99.90
16229;DHT22;8222;51.462;12.630;2023-04-25T04:21:06;7.70;99.90
16229;DHT22;8222;51.462;12.630;2023-04-25T04:23:31;7.70;99.90
16229;DHT22;8222;51.462;12.630;2023-04-25T04:25:59;7.80;99.90
16229;DHT22;8222;51.462;12.630;2023-04-25T04:28:26;7.90;99.90
16229;DHT22;8222;51.462;12.630;2023-04-25T04:30:52;7.80;99.90
16229;DHT22;8222;51.462;12.630;2023-04-25T04:33:18;7.80;99.90
16229;DHT22;8222;51.462;12.630;2023-04-25T04:35:47;7.70;99.90
16229;DHT22;8222;51.462;12.630;2023-04-25T04:38:19;7.80;99.90
16229;DHT22;8222;51.462;12.630;2023-04-25T04:40:47;7.70;99.90
16229;DHT22;8222;51.462;12.630;2023-04-25T04:43:15;7.80;99.90
16229;DHT22;8222;51.462;12.630;2023-04-25T04:45:46;7.80;99.90
16229;DHT22;8222;51.462;12.630;2023-04-25T04:48:12;7.90;99.90
16229;DHT22;8222;51.462;12.630;2023-04-25T04:50:39;7.90;99.90
16229;DHT22;8222;51.462;12.630;2023-04-25T04:53:05;8.00;99.90
16229;DHT22;8222;51.462;12.630;2023-04-25T04:55:31;8.20;99.90
16229;DHT22;8222;51.462;12.630;2023-04-25T04:57:57;8.20;99.90
16229;DHT22;8222;51.462;12.630;2023-04-25T05:00:23;8.10;99.90
16229;DHT22;8222;51.462;12.630;2023-04-25T05:02:51;8.20;99.90
16229;DHT22;8222;51.462;12.630;2023-04-25T05:05:19;8.60;99.90
16229;DHT22;8222;51.462;12.630;2023-04-25T05:07:50;8.10;99.90
16229;DHT22;8222;51.462;12.630;2023-04-25T05:10:19;8.10;99.90
16229;DHT22;8222;51.462;12.630;2023-04-25T05:12:47;8.40;99.90
16229;DHT22;8222;51.462;12.630;2023-04-25T05:15:14;8.20;99.90
16229;DHT22;8222;51.462;12.630;2023-04-25T05:17:44;8.30;99.90
16229;DHT22;8222;51.462;12.630;2023-04-25T05:20:10;8.40;99.90
16229;DHT22;8222;51.462;12.630;2023-04-25T05:22:36;8.40;99.90
16229;DHT22;8222;51.462;12.630;2023-04-25T05:25:01;8.40;99.90
16229;DHT22;8222;51.462;12.630;2023-04-25T05:27:30;8.60;99.90
16229;DHT22;8222;51.462;12.630;2023-04-25T05:29:58;8.70;99.90
16229;DHT22;8222;51.462;12.630;2023-04-25T05:32:23;8.80;99.90
16229;DHT22;8222;51.462;12.630;2023-04-25T05:34:52;8.80;99.90
16229;DHT22;8222;51.462;12.630;2023-04-25T05:37:23;8.80;99.90
16229;DHT22;8222;51.462;12.630;2023-04-25T05:39:51;9.00;99.90
16229;DHT22;8222;51.462;12.630;2023-04-25T05:42:17;9.10;99.90
16229;DHT22;8222;51.462;12.630;2023-04-25T05:44:45;9.20;99.90
16229;DHT22;8222;51.462;12.630;2023-04-25T05:47:11;9.50;99.90
16229;DHT22;8222;51.462;12.630;2023-04-25T05:49:36;9.70;99.90
16229;DHT22;8222;51.462;12.630;2023-04-25T05:52:02;10.00;99.90
16229;DHT22;8222;51.462;12.630;2023-04-25T05:54:28;10.20;99.90
16229;DHT22;8222;51.462;12.630;2023-04-25T05:56:56;10.30;99.90
16229;DHT22;8222;51.462;12.630;2023-04-25T05:59:24;10.50;99.90
16229;DHT22;8222;51.462;12.630;2023-04-25T06:01:50;10.40;99.90
16229;DHT22;8222;51.462;12.630;2023-04-25T06:04:17;10.40;99.90
16229;DHT22;8222;51.462;12.630;2023-04-25T06:06:45;10.40;99.90
16229;DHT22;8222;51.462;12.630;2023-04-25T06:09:13;10.40;99.90
16229;DHT22;8222;51.462;12.630;2023-04-25T06:11:38;10.70;99.90
16229;DHT22;8222;51.462;12.630;2023-04-25T06:14:04;10.80;99.90
16229;DHT22;8222;51.462;12.630;2023-04-25T06:16:32;10.70;99.90
16229;DHT22;8222;51.462;12.630;2023-04-25T06:19:02;10.90;99.90
16229;DHT22;8222;51.462;12.630;2023-04-25T06:21:30;10.80;99.90
16229;DHT22;8222;51.462;12.630;2023-04-25T06:23:56;10.80;99.90
16229;DHT22;8222;51.462;12.630;2023-04-25T06:26:22;11.00;99.90
16229;DHT22;8222;51.462;12.630;2023-04-25T06:28:48;11.10;99.90
16229;DHT22;8222;51.462;12.630;2023-04-25T06:31:14;11.20;99.90
16229;DHT22;8222;51.462;12.630;2023-04-25T06:33:40;11.20;99.90
16229;DHT22;8222;51.462;12.630;2023-04-25T06:36:10;11.40;99.90
16229;DHT22;8222;51.462;12.630;2023-04-25T06:38:36;11.20;99.90
16229;DHT22;8222;51.462;12.630;2023-04-25T06:41:02;11.30;99.90
16229;DHT22;8222;51.462;12.630;2023-04-25T06:43:28;11.60;99.90
16229;DHT22;8222;51.462;12.630;2023-04-25T06:45:54;11.60;99.90
16229;DHT22;8222;51.462;12.630;2023-04-25T06:48:19;11.80;99.90
16229;DHT22;8222;51.462;12.630;2023-04-25T06:50:45;11.70;99.90
16229;DHT22;8222;51.462;12.630;2023-04-25T06:53:16;12.00;99.90
16229;DHT22;8222;51.462;12.630;2023-04-25T06:55:44;12.00;99.90
16229;DHT22;8222;51.462;12.630;2023-04-25T06:58:12;12.10;99.90
16229;DHT22;8222;51.462;12.630;2023-04-25T07:00:40;12.30;99.90
16229;DHT22;8222;51.462;12.630;2023-04-25T07:03:08;12.10;99.90
16229;DHT22;8222;51.462;12.630;2023-04-25T07:05:34;12.10;99.90
16229;DHT22;8222;51.462;12.630;2023-04-25T07:08:01;12.10;99.90
16229;DHT22;8222;51.462;12.630;2023-04-25T07:10:30;12.00;99.90
16229;DHT22;8222;51.462;12.630;2023-04-25T07:12:56;12.00;99.90
16229;DHT22;8222;51.462;12.630;2023-04-25T07:15:22;12.20;99.90
16229;DHT22;8222;51.462;12.630;2023-04-25T07:17:48;12.20;99.90
16229;DHT22;8222;51.462;12.630;2023-04-25T07:20:13;12.20;99.90
16229;DHT22;8222;51.462;12.630;2023-04-25T07:22:41;12.30;99.90
16229;DHT22;8222;51.462;12.630;2023-04-25T07:25:09;12.00;99.90
16229;DHT22;8222;51.462;12.630;2023-04-25T07:27:35;12.10;99.90
16229;DHT22;8222;51.462;12.630;2023-04-25T07:30:01;12.00;99.90
16229;DHT22;8222;51.462;12.630;2023-04-25T07:32:27;11.90;99.90
16229;DHT22;8222;51.462;12.630;2023-04-25T07:34:55;11.80;99.90
16229;DHT22;8222;51.462;12.630;2023-04-25T07:37:20;11.70;99.90
16229;DHT22;8222;51.462;12.630;2023-04-25T07:39:49;11.70;99.90
16229;DHT22;8222;51.462;12.630;2023-04-25T07:42:14;11.90;99.90
16229;DHT22;8222;51.462;12.630;2023-04-25T07:44:42;12.00;99.90
16229;DHT22;8222;51.462;12.630;2023-04-25T07:47:12;11.80;99.90
16229;DHT22;8222;51.462;12.630;2023-04-25T07:49:42;11.60;99.90
16229;DHT22;8222;51.462;12.630;2023-04-25T07:52:08;11.60;99.90
16229;DHT22;8222;51.462;12.630;2023-04-25T07:54:36;11.40;99.90
16229;DHT22;8222;51.462;12.630;2023-04-25T07:57:04;11.40;99.90
16229;DHT22;8222;51.462;12.630;2023-04-25T07:59:32;11.60;99.90
16229;DHT22;8222;51.462;12.630;2023-04-25T08:02:00;11.70;99.90
16229;DHT22;8222;51.462;12.630;2023-04-25T08:04:28;11.90;99.90
16229;DHT22;8222;51.462;12.630;2023-04-25T08:06:54;12.20;99.90
16229;DHT22;8222;51.462;12.630;2023-04-25T08:09:22;12.70;99.90
16229;DHT22;8222;51.462;12.630;2023-04-25T08:11:50;12.90;99.90
16229;DHT22;8222;51.462;12.630;2023-04-25T08:14:21;12.90;99.90
16229;DHT22;8222;51.462;12.630;2023-04-25T08:16:46;12.80;99.90
16229;DHT22;8222;51.462;12.630;2023-04-25T08:19:12;13.00;99.90
16229;DHT22;8222;51.462;12.630;2023-04-25T08:21:41;12.90;99.90
16229;DHT22;8222;51.462;12.630;2023-04-25T08:24:08;12.80;99.90
16229;DHT22;8222;51.462;12.630;2023-04-25T08:26:34;12.40;99.90
16229;DHT22;8222;51.462;12.630;2023-04-25T08:29:02;12.20;99.90
16229;DHT22;8222;51.462;12.630;2023-04-25T08:31:30;12.30;99.90
16229;DHT22;8222;51.462;12.630;2023-04-25T08:33:56;12.00;99.90
16229;DHT22;8222;51.462;12.630;2023-04-25T08:36:22;11.70;99.90
16229;DHT22;8222;51.462;12.630;2023-04-25T08:38:50;11.60;99.90
16229;DHT22;8222;51.462;12.630;2023-04-25T08:41:19;11.40;99.90
16229;DHT22;8222;51.462;12.630;2023-04-25T08:43:48;11.20;99.90
16229;DHT22;8222;51.462;12.630;2023-04-25T08:46:18;11.10;99.90
16229;DHT22;8222;51.462;12.630;2023-04-25T08:48:45;11.10;99.90
16229;DHT22;8222;51.462;12.630;2023-04-25T08:51:17;11.20;99.90
16229;DHT22;8222;51.462;12.630;2023-04-25T08:53:52;11.10;99.90
16229;DHT22;8222;51.462;12.630;2023-04-25T08:56:22;11.40;99.90
16229;DHT22;8222;51.462;12.630;2023-04-25T08:58:49;11.40;99.90
16229;DHT22;8222;51.462;12.630;2023-04-25T09:01:18;11.50;99.90
16229;DHT22;8222;51.462;12.630;2023-04-25T09:03:46;11.60;99.90
16229;DHT22;8222;51.462;12.630;2023-04-25T09:06:13;11.70;99.90
16229;DHT22;8222;51.462;12.630;2023-04-25T09:08:38;11.80;99.90
16229;DHT22;8222;51.462;12.630;2023-04-25T09:11:07;11.80;99.90
16229;DHT22;8222;51.462;12.630;2023-04-25T09:13:32;12.00;99.90
16229;DHT22;8222;51.462;12.630;2023-04-25T09:16:01;11.90;99.90
16229;DHT22;8222;51.462;12.630;2023-04-25T09:18:32;11.90;99.90
16229;DHT22;8222;51.462;12.630;2023-04-25T09:21:08;11.90;99.90
16229;DHT22;8222;51.462;12.630;2023-04-25T09:23:46;11.80;99.90
16229;DHT22;8222;51.462;12.630;2023-04-25T09:26:17;11.60;99.90
16229;DHT22;8222;51.462;12.630;2023-04-25T09:28:43;11.60;99.90
16229;DHT22;8222;51.462;12.630;2023-04-25T09:31:20;11.90;99.90
16229;DHT22;8222;51.462;12.630;2023-04-25T09:33:46;12.10;99.90
16229;DHT22;8222;51.462;12.630;2023-04-25T09:36:12;12.40;99.90
16229;DHT22;8222;51.462;12.630;2023-04-25T09:38:45;12.80;99.90
16229;DHT22;8222;51.462;12.630;2023-04-25T09:41:15;12.90;99.90
16229;DHT22;8222;51.462;12.630;2023-04-25T09:43:49;13.30;99.90
16229;DHT22;8222;51.462;12.630;2023-04-25T09:46:15;13.50;99.90
16229;DHT22;8222;51.462;12.630;2023-04-25T09:48:50;13.20;99.90
16229;DHT22;8222;51.462;12.630;2023-04-25T09:51:18;13.30;99.90
16229;DHT22;8222;51.462;12.630;2023-04-25T09:53:48;13.10;99.90
16229;DHT22;8222;51.462;12.630;2023-04-25T09:56:16;13.40;99.90
16229;DHT22;8222;51.462;12.630;2023-04-25T09:58:47;13.40;99.90
16229;DHT22;8222;51.462;12.630;2023-04-25T10:01:18;13.40;99.90
16229;DHT22;8222;51.462;12.630;2023-04-25T10:03:47;13.80;99.90
16229;DHT22;8222;51.462;12.630;2023-04-25T10:06:19;13.70;99.90
16229;DHT22;8222;51.462;12.630;2023-04-25T10:08:49;13.60;99.90
16229;DHT22;8222;51.462;12.630;2023-04-25T10:11:24;13.50;99.90
16229;DHT22;8222;51.462;12.630;2023-04-25T10:13:52;13.70;99.90
16229;DHT22;8222;51.462;12.630;2023-04-25T10:16:18;13.30;99.90
16229;DHT22;8222;51.462;12.630;2023-04-25T10:18:44;12.90;99.90
16229;DHT22;8222;51.462;12.630;2023-04-25T10:21:10;12.90;99.90
16229;DHT22;8222;51.462;12.630;2023-04-25T10:23:39;12.70;99.90
16229;DHT22;8222;51.462;12.630;2023-04-25T10:26:05;12.90;99.90
16229;DHT22;8222;51.462;12.630;2023-04-25T10:28:59;12.90;99.90
16229;DHT22;8222;51.462;12.630;2023-04-25T10:31:29;13.10;99.90
16229;DHT22;8222;51.462;12.630;2023-04-25T10:33:57;13.30;99.90
16229;DHT22;8222;51.462;12.630;2023-04-25T10:36:27;13.60;99.90
16229;DHT22;8222;51.462;12.630;2023-04-25T10:39:06;13.80;99.90
16229;DHT22;8222;51.462;12.630;2023-04-25T10:41:51;14.00;99.90
16229;DHT22;8222;51.462;12.630;2023-04-25T10:44:17;13.70;99.90
16229;DHT22;8222;51.462;12.630;2023-04-25T10:46:46;13.30;99.90
16229;DHT22;8222;51.462;12.630;2023-04-25T10:54:46;12.70;99.90
16229;DHT22;8222;51.462;12.630;2023-04-25T10:57:40;12.50;99.90
16229;DHT22;8222;51.462;12.630;2023-04-25T11:00:14;12.30;99.90
16229;DHT22;8222;51.462;12.630;2023-04-25T11:02:52;12.10;99.90
16229;DHT22;8222;51.462;12.630;2023-04-25T11:05:36;12.20;99.90
16229;DHT22;8222;51.462;12.630;2023-04-25T11:08:11;12.20;99.90
16229;DHT22;8222;51.462;12.630;2023-04-25T11:10:37;12.10;99.90
16229;DHT22;8222;51.462;12.630;2023-04-25T11:13:05;12.00;99.90
16229;DHT22;8222;51.462;12.630;2023-04-25T11:15:33;11.90;99.90
16229;DHT22;8222;51.462;12.630;2023-04-25T11:17:59;11.70;99.90
16229;DHT22;8222;51.462;12.630;2023-04-25T11:20:29;11.80;99.90
16229;DHT22;8222;51.462;12.630;2023-04-25T11:22:58;11.60;99.90
16229;DHT22;8222;51.462;12.630;2023-04-25T11:25:26;11.60;99.90
16229;DHT22;8222;51.462;12.630;2023-04-25T11:27:52;11.60;99.90
16229;DHT22;8222;51.462;12.630;2023-04-25T11:30:19;11.80;99.90
16229;DHT22;8222;51.462;12.630;2023-04-25T11:32:46;12.00;99.90
16229;DHT22;8222;51.462;12.630;2023-04-25T11:35:14;12.00;99.90
16229;DHT22;8222;51.462;12.630;2023-04-25T11:37:41;12.40;99.90
16229;DHT22;8222;51.462;12.630;2023-04-25T11:40:11;12.70;99.90
16229;DHT22;8222;51.462;12.630;2023-04-25T11:42:45;12.80;99.90
16229;DHT22;8222;51.462;12.630;2023-04-25T11:45:11;12.80;99.90
16229;DHT22;8222;51.462;12.630;2023-04-25T11:47:37;12.80;99.90
16229;DHT22;8222;51.462;12.630;2023-04-25T11:50:07;12.60;99.90
16229;DHT22;8222;51.462;12.630;2023-04-25T11:57:44;12.60;99.90
16229;DHT22;8222;51.462;12.630;2023-04-25T12:00:15;12.80;99.90
16229;DHT22;8222;51.462;12.630;2023-04-25T12:02:51;12.80;99.90
16229;DHT22;8222;51.462;12.630;2023-04-25T12:05:17;12.90;99.90
16229;DHT22;8222;51.462;12.630;2023-04-25T12:07:43;12.80;99.90
16229;DHT22;8222;51.462;12.630;2023-04-25T12:10:14;12.90;99.90
16229;DHT22;8222;51.462;12.630;2023-04-25T12:12:47;13.00;99.90
16229;DHT22;8222;51.462;12.630;2023-04-25T12:17:49;13.30;99.90
16229;DHT22;8222;51.462;12.630;2023-04-25T12:20:20;13.40;99.90
16229;DHT22;8222;51.462;12.630;2023-04-25T12:22:49;13.30;99.90
16229;DHT22;8222;51.462;12.630;2023-04-25T12:25:35;13.40;99.90
16229;DHT22;8222;51.462;12.630;2023-04-25T12:28:15;13.10;99.90
16229;DHT22;8222;51.462;12.630;2023-04-25T12:30:57;13.10;99.90
16229;DHT22;8222;51.462;12.630;2023-04-25T12:33:29;12.80;99.90
16229;DHT22;8222;51.462;12.630;2023-04-25T12:35:58;13.00;99.90
16229;DHT22;8222;51.462;12.630;2023-04-25T12:38:33;12.80;99.90
16229;DHT22;8222;51.462;12.630;2023-04-25T12:41:01;12.70;99.90
16229;DHT22;8222;51.462;12.630;2023-04-25T12:43:27;12.80;99.90
16229;DHT22;8222;51.462;12.630;2023-04-25T12:45:56;12.90;99.90
16229;DHT22;8222;51.462;12.630;2023-04-25T12:48:24;13.10;99.90
16229;DHT22;8222;51.462;12.630;2023-04-25T12:50:50;13.20;96.40
16229;DHT22;8222;51.462;12.630;2023-04-25T12:53:21;13.20;95.00
16229;DHT22;8222;51.462;12.630;2023-04-25T12:55:47;13.20;94.90
16229;DHT22;8222;51.462;12.630;2023-04-25T12:58:17;13.30;98.20
16229;DHT22;8222;51.462;12.630;2023-04-25T13:00:44;13.40;95.40
16229;DHT22;8222;51.462;12.630;2023-04-25T13:03:14;13.50;93.70
16229;DHT22;8222;51.462;12.630;2023-04-25T13:05:40;13.80;92.30
16229;DHT22;8222;51.462;12.630;2023-04-25T13:08:06;13.80;91.70
16229;DHT22;8222;51.462;12.630;2023-04-25T13:10:32;14.00;93.40
16229;DHT22;8222;51.462;12.630;2023-04-25T13:12:59;14.10;92.30
16229;DHT22;8222;51.462;12.630;2023-04-25T13:15:27;14.30;89.80
16229;DHT22;8222;51.462;12.630;2023-04-25T13:17:52;14.50;83.70
16229;DHT22;8222;51.462;12.630;2023-04-25T13:20:23;14.40;83.90
16229;DHT22;8222;51.462;12.630;2023-04-25T13:22:49;14.40;91.40
16229;DHT22;8222;51.462;12.630;2023-04-25T13:25:15;14.20;85.20
16229;DHT22;8222;51.462;12.630;2023-04-25T13:27:41;14.10;85.10
16229;DHT22;8222;51.462;12.630;2023-04-25T13:30:09;13.90;88.30
16229;DHT22;8222;51.462;12.630;2023-04-25T13:32:36;13.70;90.50
16229;DHT22;8222;51.462;12.630;2023-04-25T13:35:04;13.70;92.10
16229;DHT22;8222;51.462;12.630;2023-04-25T13:37:34;13.50;90.20
16229;DHT22;8222;51.462;12.630;2023-04-25T13:40:01;13.30;91.10
16229;DHT22;8222;51.462;12.630;2023-04-25T13:42:29;12.90;93.80
16229;DHT22;8222;51.462;12.630;2023-04-25T13:44:55;12.60;94.60
16229;DHT22;8222;51.462;12.630;2023-04-25T13:47:22;12.60;95.90
16229;DHT22;8222;51.462;12.630;2023-04-25T13:49:51;12.90;97.00
16229;DHT22;8222;51.462;12.630;2023-04-25T13:52:16;13.00;94.40
16229;DHT22;8222;51.462;12.630;2023-04-25T13:54:42;13.10;93.00
16229;DHT22;8222;51.462;12.630;2023-04-25T13:57:08;13.20;92.70
16229;DHT22;8222;51.462;12.630;2023-04-25T13:59:39;13.40;92.90
16229;DHT22;8222;51.462;12.630;2023-04-25T14:02:06;13.50;88.80
16229;DHT22;8222;51.462;12.630;2023-04-25T14:04:32;13.80;85.70
16229;DHT22;8222;51.462;12.630;2023-04-25T14:06:58;14.10;84.50
16229;DHT22;8222;51.462;12.630;2023-04-25T14:09:24;14.00;84.20
16229;DHT22;8222;51.462;12.630;2023-04-25T14:11:51;14.20;83.10
16229;DHT22;8222;51.462;12.630;2023-04-25T14:14:18;14.20;81.90
16229;DHT22;8222;51.462;12.630;2023-04-25T14:16:48;14.10;81.40
16229;DHT22;8222;51.462;12.630;2023-04-25T14:19:20;13.90;78.90
16229;DHT22;8222;51.462;12.630;2023-04-25T14:21:46;13.70;85.30
16229;DHT22;8222;51.462;12.630;2023-04-25T14:24:13;13.60;88.90
16229;DHT22;8222;51.462;12.630;2023-04-25T14:26:41;13.40;86.30
16229;DHT22;8222;51.462;12.630;2023-04-25T14:29:08;13.40;87.60
16229;DHT22;8222;51.462;12.630;2023-04-25T14:31:37;13.50;87.10
16229;DHT22;8222;51.462;12.630;2023-04-25T14:34:03;13.50;87.10
16229;DHT22;8222;51.462;12.630;2023-04-25T14:36:31;13.50;85.20
16229;DHT22;8222;51.462;12.630;2023-04-25T14:38:58;13.70;86.70
16229;DHT22;8222;51.462;12.630;2023-04-25T14:41:26;13.80;86.90
16229;DHT22;8222;51.462;12.630;2023-04-25T14:43:52;13.70;83.90
16229;DHT22;8222;51.462;12.630;2023-04-25T14:46:21;13.70;84.80
16229;DHT22;8222;51.462;12.630;2023-04-25T14:48:48;13.80;86.30
16229;DHT22;8222;51.462;12.630;2023-04-25T14:51:14;13.70;85.20
16229;DHT22;8222;51.462;12.630;2023-04-25T14:53:40;13.60;85.50
16229;DHT22;8222;51.462;12.630;2023-04-25T14:56:08;13.60;85.00
16229;DHT22;8222;51.462;12.630;2023-04-25T14:58:39;13.80;86.00
16229;DHT22;8222;51.462;12.630;2023-04-25T15:01:05;14.10;86.30
16229;DHT22;8222;51.462;12.630;2023-04-25T15:03:34;13.80;81.60
16229;DHT22;8222;51.462;12.630;2023-04-25T15:06:00;13.70;85.90
16229;DHT22;8222;51.462;12.630;2023-04-25T15:08:28;13.50;90.20
16229;DHT22;8222;51.462;12.630;2023-04-25T15:10:54;13.30;91.00
16229;DHT22;8222;51.462;12.630;2023-04-25T15:13:20;13.20;93.00
16229;DHT22;8222;51.462;12.630;2023-04-25T15:15:46;13.10;93.20
16229;DHT22;8222;51.462;12.630;2023-04-25T15:18:17;13.20;94.00
16229;DHT22;8222;51.462;12.630;2023-04-25T15:20:48;13.10;95.00
16229;DHT22;8222;51.462;12.630;2023-04-25T15:23:17;13.00;97.20
16229;DHT22;8222;51.462;12.630;2023-04-25T15:25:43;13.10;96.90
16229;DHT22;8222;51.462;12.630;2023-04-25T15:28:09;13.00;95.30
16229;DHT22;8222;51.462;12.630;2023-04-25T15:30:35;12.80;98.50
16229;DHT22;8222;51.462;12.630;2023-04-25T15:33:01;12.60;97.70
16229;DHT22;8222;51.462;12.630;2023-04-25T15:35:29;12.50;97.70
16229;DHT22;8222;51.462;12.630;2023-04-25T15:37:57;12.50;99.90
16229;DHT22;8222;51.462;12.630;2023-04-25T15:40:22;12.70;99.50
16229;DHT22;8222;51.462;12.630;2023-04-25T15:42:51;12.90;99.90
16229;DHT22;8222;51.462;12.630;2023-04-25T15:45:21;13.40;98.90
16229;DHT22;8222;51.462;12.630;2023-04-25T15:47:51;14.10;96.60
16229;DHT22;8222;51.462;12.630;2023-04-25T15:50:17;14.40;91.00
16229;DHT22;8222;51.462;12.630;2023-04-25T15:52:43;14.60;88.00